createdAt,value
2019-02-04T00:01:55.185Z,98105.63
2019-02-04T00:06:51.044Z,98110.42
2019-02-04T00:11:48.743Z,98115.17
2019-02-04T00:16:44.576Z,98114.84
2019-02-04T00:21:43.637Z,98119.11
2019-02-04T00:26:51.061Z,98118.64
2019-02-04T00:31:38.407Z,98119.69
2019-02-04T00:36:34.271Z,98114.36
2019-02-04T00:41:30.314Z,98125.72
2019-02-04T00:46:33.819Z,98127.42
2019-02-04T00:51:29.668Z,98129.94
2019-02-04T00:56:25.569Z,98133.49
2019-02-04T01:01:21.727Z,98140.91
2019-02-04T01:06:17.686Z,98145.09
2019-02-04T01:11:14.152Z,98145.91
2019-02-04T01:16:11.641Z,98151.92
2019-02-04T01:21:07.554Z,98158.99
2019-02-04T01:26:03.586Z,98163.33
2019-02-04T01:30:59.407Z,98167.14
2019-02-04T01:35:55.260Z,98171.48
2019-02-04T01:40:51.221Z,98166.70
2019-02-04T01:45:47.057Z,98165.82
2019-02-04T01:50:42.988Z,98159.17
2019-02-04T01:55:39.040Z,98154.02
2019-02-04T02:00:38.084Z,98157.00
2019-02-04T02:05:34.281Z,98151.44
2019-02-04T02:10:30.642Z,98148.52
2019-02-04T02:15:28.615Z,98153.34
2019-02-04T02:20:28.782Z,98149.09
2019-02-04T02:25:24.784Z,98143.61
2019-02-04T02:30:30.153Z,98134.70
2019-02-04T02:35:27.327Z,98134.27
2019-02-04T02:40:35.344Z,98130.86
2019-02-04T02:45:32.038Z,98128.69
2019-02-04T02:50:28.235Z,98132.30
2019-02-04T02:55:24.405Z,98138.87
2019-02-04T03:00:27.551Z,98131.91
2019-02-04T03:05:30.693Z,98144.84
2019-02-04T03:10:29.882Z,98152.64
2019-02-04T03:15:28.581Z,98150.39
2019-02-04T03:20:24.895Z,98154.68
2019-02-04T03:25:21.383Z,98160.28
2019-02-04T03:30:22.166Z,98167.28
2019-02-04T03:35:18.206Z,98175.84
2019-02-04T03:40:18.059Z,98176.02
2019-02-04T03:45:14.704Z,98180.44
2019-02-04T03:50:12.233Z,98179.13
2019-02-04T03:55:09.905Z,98184.19
2019-02-04T04:00:09.387Z,98184.69
2019-02-04T04:05:05.657Z,98189.88
2019-02-04T04:10:01.515Z,98205.39
2019-02-04T04:14:57.494Z,98210.52
2019-02-04T04:19:53.357Z,98220.95
2019-02-04T04:24:49.320Z,98217.59
2019-02-04T04:29:45.189Z,98226.09
2019-02-04T04:34:41.180Z,98227.83
2019-02-04T04:39:37.252Z,98229.86
2019-02-04T04:44:34.959Z,98230.71
2019-02-04T04:49:30.783Z,98231.17
2019-02-04T04:54:26.678Z,98236.29
2019-02-04T04:59:23.811Z,98233.96
2019-02-04T05:04:19.952Z,98229.52
2019-02-04T05:09:15.935Z,98234.97
2019-02-04T05:14:11.867Z,98229.38
2019-02-04T05:19:08.270Z,98223.78
2019-02-04T05:24:04.163Z,98237.92
2019-02-04T05:29:00.016Z,98239.30
2019-02-04T05:33:55.850Z,98247.42
2019-02-04T05:38:51.673Z,98249.57
2019-02-04T05:43:47.512Z,98250.42
2019-02-04T05:48:49.427Z,98257.72
2019-02-04T05:53:41.932Z,98258.52
2019-02-04T05:58:37.751Z,98252.88
2019-02-04T06:03:33.990Z,98245.23
2019-02-04T06:08:29.975Z,98242.55
2019-02-04T06:13:25.873Z,98248.16
2019-02-04T06:18:22.034Z,98245.12
2019-02-04T06:23:17.928Z,98246.05
2019-02-04T06:28:13.755Z,98243.52
2019-02-04T06:33:09.699Z,98240.09
2019-02-04T06:38:05.809Z,98244.42
2019-02-04T06:43:01.653Z,98247.45
2019-02-04T06:47:57.639Z,98254.25
2019-02-04T06:52:53.580Z,98256.87
2019-02-04T06:57:49.559Z,98243.18
2019-02-04T07:02:45.469Z,98244.37
2019-02-04T07:07:41.470Z,98245.77
2019-02-04T07:12:39.793Z,98243.72
2019-02-04T07:17:35.812Z,98245.33
2019-02-04T07:22:33.311Z,98243.45
2019-02-04T07:27:29.180Z,98256.72
2019-02-04T07:32:25.240Z,98269.58
2019-02-04T07:37:21.097Z,98276.09
2019-02-04T07:42:17.132Z,98283.72
2019-02-04T07:47:12.982Z,98287.52
2019-02-04T07:52:08.990Z,98281.14
2019-02-04T07:57:04.906Z,98274.86
2019-02-04T08:02:00.801Z,98258.09
2019-02-04T08:06:56.682Z,98242.18
2019-02-04T08:11:52.515Z,98235.33
2019-02-04T08:16:49.223Z,98233.89
2019-02-04T08:21:45.296Z,98229.20
2019-02-04T08:26:41.414Z,98215.33
2019-02-04T08:31:37.379Z,98214.03
2019-02-04T08:36:44.255Z,98204.02
2019-02-04T08:41:31.113Z,98208.47
2019-02-04T08:46:27.166Z,98208.37
2019-02-04T08:51:23.009Z,98211.72
2019-02-04T08:56:18.992Z,98218.42
2019-02-04T09:01:14.792Z,98223.08
2019-02-04T09:06:10.671Z,98236.55
2019-02-04T09:11:06.618Z,98233.23
2019-02-04T09:16:02.765Z,98245.14
2019-02-04T09:20:58.715Z,98244.54
2019-02-04T09:25:54.543Z,98241.04
2019-02-04T09:30:51.654Z,98253.03
2019-02-04T09:35:47.582Z,98242.16
2019-02-04T09:40:45.648Z,98235.86
2019-02-04T09:45:43.115Z,98224.55
2019-02-04T09:50:39.619Z,98222.39
2019-02-04T09:55:37.814Z,98226.33
2019-02-04T10:00:35.335Z,98227.88
2019-02-04T10:05:31.412Z,98229.05
2019-02-04T10:10:28.884Z,98227.91
2019-02-04T10:15:28.652Z,98225.56
2019-02-04T10:20:33.562Z,98217.42
2019-02-04T10:25:26.492Z,98229.02
2019-02-04T10:30:23.791Z,98222.54
2019-02-04T10:35:20.985Z,98219.32
2019-02-04T10:40:22.219Z,98204.64
2019-02-04T10:45:20.628Z,98210.90
2019-02-04T10:50:20.957Z,98210.91
2019-02-04T10:55:18.670Z,98205.40
2019-02-04T11:00:18.392Z,98196.22
2019-02-04T11:05:19.526Z,98200.11
2019-02-04T11:10:16.847Z,98195.28
2019-02-04T11:15:14.725Z,98199.42
2019-02-04T11:20:32.102Z,98190.83
2019-02-04T11:25:28.485Z,98185.98
2019-02-04T11:30:28.593Z,98175.70
2019-02-04T11:35:24.744Z,98172.70
2019-02-04T11:40:31.765Z,98161.47
2019-02-04T11:45:28.003Z,98151.03
2019-02-04T11:50:24.342Z,98147.83
2019-02-04T11:55:20.445Z,98135.32
2019-02-04T12:00:20.524Z,98122.56
2019-02-04T12:05:18.726Z,98116.80
2019-02-04T12:10:19.657Z,98113.05
2019-02-04T12:15:23.296Z,98117.41
2019-02-04T12:20:19.854Z,98115.38
2019-02-04T12:25:21.353Z,98106.41
2019-02-04T12:30:31.202Z,98090.91
2019-02-04T12:35:27.185Z,98090.64
2019-02-04T12:40:23.848Z,98100.50
2019-02-04T12:45:27.364Z,98092.89
2019-02-04T12:50:23.871Z,98076.03
2019-02-04T12:55:24.284Z,98075.77
2019-02-04T13:00:35.174Z,98063.40
2019-02-04T13:05:46.838Z,98053.16
2019-02-04T13:11:12.275Z,98047.92
2019-02-04T13:16:15.907Z,98061.73
2019-02-04T13:22:49.457Z,98042.13
2019-02-04T13:26:40.963Z,98032.28
2019-02-04T13:32:54.528Z,98014.55
2019-02-04T13:38:09.239Z,98012.82
2019-02-04T13:43:06.204Z,98010.77
2019-02-04T13:48:02.155Z,98006.59
2019-02-04T13:52:58.559Z,98003.56
2019-02-04T13:57:54.707Z,97993.12
2019-02-04T14:02:58.861Z,97999.59
2019-02-04T14:07:49.561Z,97996.06
2019-02-04T14:12:45.662Z,97992.97
2019-02-04T14:17:41.811Z,97984.77
2019-02-04T14:22:38.582Z,97989.17
2019-02-04T14:27:37.194Z,97990.73
2019-02-04T14:32:33.839Z,97992.42
2019-02-04T14:37:32.563Z,97988.51
2019-02-04T14:42:29.999Z,97981.64
2019-02-04T14:47:43.236Z,97987.97
2019-02-04T14:53:39.516Z,97993.57
2019-02-04T14:59:30.901Z,97986.22
2019-02-04T15:04:52.394Z,97984.40
2019-02-04T15:10:13.072Z,97984.30
2019-02-04T15:15:33.349Z,97970.57
2019-02-04T15:21:18.406Z,97970.03
2019-02-04T15:27:09.767Z,97973.60
2019-02-04T15:33:12.421Z,97972.16
2019-02-04T15:38:56.158Z,97975.73
2019-02-04T15:44:57.613Z,97995.27
2019-02-04T15:50:44.367Z,97993.39
2019-02-04T15:55:42.140Z,97993.55
2019-02-04T16:00:40.194Z,98004.31
2019-02-04T16:05:40.195Z,98011.08
2019-02-04T16:10:36.575Z,98018.83
2019-02-04T16:15:32.981Z,98019.81
2019-02-04T16:20:31.627Z,98017.57
2019-02-04T16:25:27.693Z,98022.09
2019-02-04T16:30:24.421Z,98032.05
2019-02-04T16:35:21.659Z,98031.85
2019-02-04T16:40:20.248Z,98025.84
2019-02-04T16:45:17.518Z,98030.23
2019-02-04T16:50:22.600Z,98035.80
2019-02-04T16:55:25.547Z,98046.59
2019-02-04T17:00:29.066Z,98056.11
2019-02-04T17:05:26.903Z,98058.13
2019-02-04T17:10:23.984Z,98058.94
2019-02-04T17:15:26.227Z,98060.67
2019-02-04T17:20:38.492Z,98067.01
2019-02-04T17:25:35.004Z,98066.28
2019-02-04T17:30:38.144Z,98071.32
2019-02-04T17:35:37.018Z,98079.50
2019-02-04T17:40:42.342Z,98085.11
2019-02-04T17:45:47.859Z,98082.94
2019-02-04T17:50:55.578Z,98084.96
2019-02-04T17:55:58.543Z,98081.13
2019-02-04T18:01:13.529Z,98085.33
2019-02-04T18:06:21.408Z,98083.56
2019-02-04T18:11:22.645Z,98095.65
2019-02-04T18:16:24.769Z,98102.47
2019-02-04T18:21:24.617Z,98098.23
2019-02-04T18:26:27.674Z,98095.20
2019-02-04T18:31:27.182Z,98100.81
2019-02-04T18:36:37.299Z,98101.63
2019-02-04T18:41:43.001Z,98098.64
2019-02-04T18:46:39.520Z,98107.59
2019-02-04T18:51:49.373Z,98104.69
2019-02-04T18:56:57.561Z,98107.71
2019-02-04T19:01:53.952Z,98106.42
2019-02-04T19:06:58.150Z,98107.70
2019-02-04T19:12:10.137Z,98109.44
2019-02-04T19:29:52.970Z,98091.38
2019-02-04T19:41:05.051Z,98099.27
2019-02-04T19:46:03.755Z,98094.92
2019-02-04T19:51:12.626Z,98101.81
2019-02-04T19:56:30.035Z,98106.13
2019-02-04T20:01:45.299Z,98101.89
2019-02-04T20:12:24.707Z,98105.28
2019-02-04T20:17:26.847Z,98112.17
2019-02-04T20:22:46.570Z,98109.59
2019-02-04T20:27:42.795Z,98114.83
2019-02-04T20:33:04.325Z,98116.85
2019-02-04T20:38:20.590Z,98113.02
2019-02-04T20:43:16.532Z,98109.19
2019-02-04T20:48:17.831Z,98115.12
2019-02-04T20:53:15.365Z,98116.04
2019-02-04T20:58:12.036Z,98117.37
2019-02-04T21:03:11.573Z,98112.20
2019-02-04T21:08:08.795Z,98119.06
2019-02-04T21:13:05.693Z,98110.07
2019-02-04T21:18:03.476Z,98114.01
2019-02-04T21:23:27.621Z,98128.23
2019-02-04T21:28:28.671Z,98125.77
2019-02-04T21:33:27.633Z,98126.30
2019-02-04T21:38:28.337Z,98128.17
2019-02-04T21:43:27.016Z,98127.80
2019-02-04T21:48:23.135Z,98124.67
2019-02-04T21:53:23.545Z,98123.80
2019-02-04T21:58:19.572Z,98117.38
2019-02-04T22:03:24.863Z,98118.80
2019-02-04T22:08:26.312Z,98111.06
2019-02-04T22:13:30.390Z,98111.13
2019-02-04T22:18:36.558Z,98105.19
2019-02-04T22:23:35.832Z,98105.29
2019-02-04T22:28:39.203Z,98114.31
2019-02-04T22:33:35.281Z,98109.16
2019-02-04T22:38:43.470Z,98114.06
2019-02-04T22:43:39.383Z,98117.96
2019-02-04T22:48:43.289Z,98118.43
2019-02-04T22:53:45.332Z,98119.75
2019-02-04T22:58:59.326Z,98127.59
2019-02-04T23:03:56.489Z,98130.59
2019-02-04T23:08:53.378Z,98122.53
2019-02-04T23:13:51.938Z,98130.59
2019-02-04T23:18:50.695Z,98121.19
2019-02-04T23:23:54.942Z,98126.34
2019-02-04T23:28:58.570Z,98133.11
2019-02-04T23:33:54.809Z,98132.70
2019-02-04T23:38:51.980Z,98127.72
2019-02-04T23:43:48.139Z,98125.44
2019-02-04T23:48:45.459Z,98129.16
2019-02-04T23:53:41.831Z,98125.72
2019-02-04T23:58:37.892Z,98122.83
